sensor_id;sensor_type;location;lat;lon;timestamp;pressure;altitude;pressure_sealevel;temperature;humidity
39341;BME280;25059;52.132;21.062;2023-02-20T00:01:11;100467.50;;;-0.05;100.00
39341;BME280;25059;52.132;21.062;2023-02-20T00:03:56;100464.03;;;-0.10;100.00
39341;BME280;25059;52.132;21.062;2023-02-20T00:06:40;100471.84;;;0.01;100.00
39341;BME280;25059;52.132;21.062;2023-02-20T00:09:25;100460.63;;;-0.02;100.00
39341;BME280;25059;52.132;21.062;2023-02-20T00:12:11;100458.91;;;-0.01;100.00
39341;BME280;25059;52.132;21.062;2023-02-20T00:14:56;100454.66;;;0.07;100.00
39341;BME280;25059;52.132;21.062;2023-02-20T00:17:42;100449.50;;;0.12;100.00
39341;BME280;25059;52.132;21.062;2023-02-20T00:20:27;100440.91;;;0.17;100.00
39341;BME280;25059;52.132;21.062;2023-02-20T00:23:13;100440.94;;;0.25;100.00
39341;BME280;25059;52.132;21.062;2023-02-20T00:25:58;100434.94;;;0.29;100.00
39341;BME280;25059;52.132;21.062;2023-02-20T00:28:43;100438.41;;;0.34;100.00
39341;BME280;25059;52.132;21.062;2023-02-20T00:31:27;100443.59;;;0.40;100.00
39341;BME280;25059;52.132;21.062;2023-02-20T00:34:12;100445.34;;;0.50;100.00
39341;BME280;25059;52.132;21.062;2023-02-20T00:36:57;100454.84;;;0.50;100.00
39341;BME280;25059;52.132;21.062;2023-02-20T00:39:42;100439.34;;;0.59;100.00
39341;BME280;25059;52.132;21.062;2023-02-20T00:42:26;100433.31;;;0.64;100.00
39341;BME280;25059;52.132;21.062;2023-02-20T00:45:13;100441.94;;;0.60;100.00
39341;BME280;25059;52.132;21.062;2023-02-20T00:47:58;100453.13;;;0.58;100.00
39341;BME280;25059;52.132;21.062;2023-02-20T00:50:42;100448.84;;;0.64;100.00
39341;BME280;25059;52.132;21.062;2023-02-20T00:53:26;100451.44;;;0.63;100.00
39341;BME280;25059;52.132;21.062;2023-02-20T00:56:11;100455.75;;;0.69;100.00
39341;BME280;25059;52.132;21.062;2023-02-20T00:58:56;100452.31;;;0.73;100.00
39341;BME280;25059;52.132;21.062;2023-02-20T01:01:41;100438.53;;;0.74;100.00
39341;BME280;25059;52.132;21.062;2023-02-20T01:04:25;100444.53;;;0.68;100.00
39341;BME280;25059;52.132;21.062;2023-02-20T01:07:10;100443.69;;;0.71;100.00
39341;BME280;25059;52.132;21.062;2023-02-20T01:09:55;100435.94;;;0.77;100.00
39341;BME280;25059;52.132;21.062;2023-02-20T01:12:39;100436.81;;;0.77;100.00
39341;BME280;25059;52.132;21.062;2023-02-20T01:15:24;100439.41;;;0.80;100.00
39341;BME280;25059;52.132;21.062;2023-02-20T01:18:08;100438.53;;;0.80;100.00
39341;BME280;25059;52.132;21.062;2023-02-20T01:20:53;100431.63;;;0.82;100.00
39341;BME280;25059;52.132;21.062;2023-02-20T01:23:38;100423.00;;;0.84;100.00
39341;BME280;25059;52.132;21.062;2023-02-20T01:26:22;100429.91;;;0.79;100.00
39341;BME280;25059;52.132;21.062;2023-02-20T01:29:07;100423.00;;;0.84;100.00
39341;BME280;25059;52.132;21.062;2023-02-20T01:31:51;100419.56;;;0.84;100.00
39341;BME280;25059;52.132;21.062;2023-02-20T01:34:36;100410.94;;;0.85;100.00
39341;BME280;25059;52.132;21.062;2023-02-20T01:37:21;100413.53;;;0.88;100.00
39341;BME280;25059;52.132;21.062;2023-02-20T01:40:06;100426.47;;;0.91;100.00
39341;BME280;25059;52.132;21.062;2023-02-20T01:42:50;100416.13;;;0.86;100.00
39341;BME280;25059;52.132;21.062;2023-02-20T01:45:36;100423.88;;;0.88;100.00
39341;BME280;25059;52.132;21.062;2023-02-20T01:48:24;100426.47;;;0.88;100.00
39341;BME280;25059;52.132;21.062;2023-02-20T01:51:09;100417.84;;;0.93;100.00
39341;BME280;25059;52.132;21.062;2023-02-20T01:53:53;100422.16;;;0.94;100.00
39341;BME280;25059;52.132;21.062;2023-02-20T01:56:38;100435.97;;;0.98;100.00
39341;BME280;25059;52.132;21.062;2023-02-20T01:59:24;100405.78;;;1.00;100.00
39341;BME280;25059;52.132;21.062;2023-02-20T02:02:10;100408.38;;;1.00;100.00
39341;BME280;25059;52.132;21.062;2023-02-20T02:04:55;100404.06;;;1.02;100.00
39341;BME280;25059;52.132;21.062;2023-02-20T02:07:39;100404.06;;;0.98;100.00
39341;BME280;25059;52.132;21.062;2023-02-20T02:10:31;100392.84;;;0.91;100.00
39341;BME280;25059;52.132;21.062;2023-02-20T02:13:20;100408.38;;;0.91;100.00
39341;BME280;25059;52.132;21.062;2023-02-20T02:45:53;100390.25;;;0.83;100.00
39341;BME280;25059;52.132;21.062;2023-02-20T02:48:43;100385.94;;;0.82;100.00
39341;BME280;25059;52.132;21.062;2023-02-20T02:51:33;100387.66;;;0.85;100.00
39341;BME280;25059;52.132;21.062;2023-02-20T02:54:24;100374.72;;;0.85;100.00
39341;BME280;25059;52.132;21.062;2023-02-20T02:57:20;100392.84;;;0.91;100.00
39341;BME280;25059;52.132;21.062;2023-02-20T03:00:08;100391.09;;;0.90;100.00
39341;BME280;25059;52.132;21.062;2023-02-20T03:06:14;100385.06;;;0.85;100.00
39341;BME280;25059;52.132;21.062;2023-02-20T03:09:04;100401.47;;;0.88;100.00
39341;BME280;25059;52.132;21.062;2023-02-20T03:11:50;100400.59;;;0.91;100.00
39341;BME280;25059;52.132;21.062;2023-02-20T03:14:42;100391.97;;;0.86;100.00
39341;BME280;25059;52.132;21.062;2023-02-20T03:18:01;100392.84;;;0.89;100.00
39341;BME280;25059;52.132;21.062;2023-02-20T03:20:57;100399.72;;;0.87;100.00
39341;BME280;25059;52.132;21.062;2023-02-20T03:23:49;100387.66;;;0.91;100.00
39341;BME280;25059;52.132;21.062;2023-02-20T03:26:36;100386.78;;;0.92;100.00
39341;BME280;25059;52.132;21.062;2023-02-20T03:29:28;100384.22;;;0.92;100.00
39341;BME280;25059;52.132;21.062;2023-02-20T03:32:13;100406.63;;;0.91;100.00
39341;BME280;25059;52.132;21.062;2023-02-20T03:35:22;100378.16;;;0.91;100.00
39341;BME280;25059;52.132;21.062;2023-02-20T03:38:28;100386.78;;;0.87;100.00
39341;BME280;25059;52.132;21.062;2023-02-20T03:41:37;100376.44;;;0.84;100.00
39341;BME280;25059;52.132;21.062;2023-02-20T03:44:43;100383.34;;;0.85;100.00
39341;BME280;25059;52.132;21.062;2023-02-20T03:47:30;100386.78;;;0.86;100.00
39341;BME280;25059;52.132;21.062;2023-02-20T03:50:17;100381.63;;;0.80;100.00
39341;BME280;25059;52.132;21.062;2023-02-20T03:53:22;100391.97;;;0.84;100.00
39341;BME280;25059;52.132;21.062;2023-02-20T03:56:12;100385.06;;;0.77;100.00
39341;BME280;25059;52.132;21.062;2023-02-20T04:02:38;100375.56;;;0.79;100.00
39341;BME280;25059;52.132;21.062;2023-02-20T04:05:28;100372.97;;;0.64;100.00
39341;BME280;25059;52.132;21.062;2023-02-20T04:08:17;100376.41;;;0.68;100.00
39341;BME280;25059;52.132;21.062;2023-02-20T04:11:10;100376.41;;;0.66;100.00
39341;BME280;25059;52.132;21.062;2023-02-20T04:13:57;100379.00;;;0.58;100.00
39341;BME280;25059;52.132;21.062;2023-02-20T04:16:50;100384.19;;;0.66;100.00
39341;BME280;25059;52.132;21.062;2023-02-20T04:19:35;100367.78;;;0.61;100.00
39341;BME280;25059;52.132;21.062;2023-02-20T04:22:27;100374.69;;;0.54;100.00
39341;BME280;25059;52.132;21.062;2023-02-20T04:28:03;100353.13;;;0.60;100.00
39341;BME280;25059;52.132;21.062;2023-02-20T04:30:49;100354.84;;;0.53;100.00
39341;BME280;25059;52.132;21.062;2023-02-20T04:33:34;100366.03;;;0.48;100.00
39341;BME280;25059;52.132;21.062;2023-02-20T04:36:18;100359.13;;;0.47;100.00
39341;BME280;25059;52.132;21.062;2023-02-20T04:39:03;100341.03;;;0.47;100.00
39341;BME280;25059;52.132;21.062;2023-02-20T04:41:47;100343.63;;;0.50;100.00
39341;BME280;25059;52.132;21.062;2023-02-20T04:44:32;100338.44;;;0.45;100.00
39341;BME280;25059;52.132;21.062;2023-02-20T04:47:18;100334.16;;;0.55;100.00
39341;BME280;25059;52.132;21.062;2023-02-20T04:50:03;100339.34;;;0.62;100.00
39341;BME280;25059;52.132;21.062;2023-02-20T04:52:48;100331.56;;;0.62;100.00
39341;BME280;25059;52.132;21.062;2023-02-20T04:55:33;100332.44;;;0.68;100.00
39341;BME280;25059;52.132;21.062;2023-02-20T04:58:17;100328.13;;;0.73;100.00
39341;BME280;25059;52.132;21.062;2023-02-20T05:01:02;100322.97;;;0.76;100.00
39341;BME280;25059;52.132;21.062;2023-02-20T05:03:47;100322.97;;;0.80;100.00
39341;BME280;25059;52.132;21.062;2023-02-20T05:06:32;100329.00;;;0.82;100.00
39341;BME280;25059;52.132;21.062;2023-02-20T05:09:16;100330.72;;;0.85;100.00
39341;BME280;25059;52.132;21.062;2023-02-20T05:12:01;100327.28;;;0.90;100.00
39341;BME280;25059;52.132;21.062;2023-02-20T05:14:45;100322.09;;;0.89;100.00
39341;BME280;25059;52.132;21.062;2023-02-20T05:17:30;100321.22;;;1.05;100.00
39341;BME280;25059;52.132;21.062;2023-02-20T05:20:15;100303.97;;;1.07;100.00
39341;BME280;25059;52.132;21.062;2023-02-20T05:23:00;100303.09;;;1.08;100.00
39341;BME280;25059;52.132;21.062;2023-02-20T05:25:44;100307.41;;;1.15;100.00
39341;BME280;25059;52.132;21.062;2023-02-20T05:28:29;100311.72;;;1.18;100.00
39341;BME280;25059;52.132;21.062;2023-02-20T05:31:14;100309.13;;;1.15;100.00
39341;BME280;25059;52.132;21.062;2023-02-20T05:33:58;100294.44;;;1.23;100.00
39341;BME280;25059;52.132;21.062;2023-02-20T05:36:43;100303.94;;;1.24;100.00
39341;BME280;25059;52.132;21.062;2023-02-20T05:39:28;100316.88;;;1.35;100.00
39341;BME280;25059;52.132;21.062;2023-02-20T05:42:13;100317.72;;;1.32;100.00
39341;BME280;25059;52.132;21.062;2023-02-20T05:44:58;100308.22;;;1.37;100.00
39341;BME280;25059;52.132;21.062;2023-02-20T05:47:42;100306.50;;;1.39;100.00
39341;BME280;25059;52.132;21.062;2023-02-20T05:50:27;100297.00;;;1.40;100.00
39341;BME280;25059;52.132;21.062;2023-02-20T05:53:11;100292.69;;;1.39;100.00
39341;BME280;25059;52.132;21.062;2023-02-20T05:55:56;100278.88;;;1.41;100.00
39341;BME280;25059;52.132;21.062;2023-02-20T05:58:42;100283.19;;;1.39;100.00
39341;BME280;25059;52.132;21.062;2023-02-20T06:01:30;100276.28;;;1.40;100.00
39341;BME280;25059;52.132;21.062;2023-02-20T06:04:15;100277.13;;;1.42;100.00
39341;BME280;25059;52.132;21.062;2023-02-20T06:06:59;100271.09;;;1.43;100.00
39341;BME280;25059;52.132;21.062;2023-02-20T06:09:44;100286.59;;;1.50;100.00
39341;BME280;25059;52.132;21.062;2023-02-20T06:12:28;100269.34;;;1.52;100.00
39341;BME280;25059;52.132;21.062;2023-02-20T06:15:13;100269.31;;;1.55;100.00
39341;BME280;25059;52.132;21.062;2023-02-20T06:17:57;100265.00;;;1.56;100.00
39341;BME280;25059;52.132;21.062;2023-02-20T06:20:42;100264.09;;;1.68;100.00
39341;BME280;25059;52.132;21.062;2023-02-20T06:23:27;100261.47;;;1.74;100.00
39341;BME280;25059;52.132;21.062;2023-02-20T06:26:12;100258.84;;;1.81;100.00
39341;BME280;25059;52.132;21.062;2023-02-20T06:28:57;100283.84;;;1.88;100.00
39341;BME280;25059;52.132;21.062;2023-02-20T06:31:42;100251.84;;;1.99;100.00
39341;BME280;25059;52.132;21.062;2023-02-20T06:34:27;100269.97;;;1.99;100.00
39341;BME280;25059;52.132;21.062;2023-02-20T06:37:15;100239.69;;;2.07;100.00
39341;BME280;25059;52.132;21.062;2023-02-20T06:39:59;100250.03;;;2.10;100.00
39341;BME280;25059;52.132;21.062;2023-02-20T06:42:44;100242.22;;;2.16;100.00
39341;BME280;25059;52.132;21.062;2023-02-20T06:45:29;100227.47;;;2.22;100.00
39341;BME280;25059;52.132;21.062;2023-02-20T06:48:14;100216.16;;;2.33;100.00
39341;BME280;25059;52.132;21.062;2023-02-20T06:50:59;100233.41;;;2.40;100.00
39341;BME280;25059;52.132;21.062;2023-02-20T06:53:43;100226.44;;;2.46;100.00
39341;BME280;25059;52.132;21.062;2023-02-20T06:56:30;100230.69;;;2.55;100.00
39341;BME280;25059;52.132;21.062;2023-02-20T06:59:15;100208.13;;;2.62;100.00
39341;BME280;25059;52.132;21.062;2023-02-20T07:01:59;100208.03;;;2.72;100.00
39341;BME280;25059;52.132;21.062;2023-02-20T07:04:48;100214.91;;;2.76;100.00
39341;BME280;25059;52.132;21.062;2023-02-20T07:07:33;100216.63;;;2.80;100.00
39341;BME280;25059;52.132;21.062;2023-02-20T07:10:17;100211.34;;;2.88;100.00
39341;BME280;25059;52.132;21.062;2023-02-20T07:13:03;100215.66;;;2.90;100.00
39341;BME280;25059;52.132;21.062;2023-02-20T07:15:49;100208.69;;;2.92;100.00
39341;BME280;25059;52.132;21.062;2023-02-20T07:18:34;100200.91;;;2.92;100.00
39341;BME280;25059;52.132;21.062;2023-02-20T07:21:18;100187.81;;;3.05;100.00
39341;BME280;25059;52.132;21.062;2023-02-20T07:24:03;100191.25;;;3.05;100.00
39341;BME280;25059;52.132;21.062;2023-02-20T07:26:48;100193.88;;;3.04;100.00
39341;BME280;25059;52.132;21.062;2023-02-20T07:29:33;100197.28;;;3.07;100.00
39341;BME280;25059;52.132;21.062;2023-02-20T07:32:17;100184.28;;;3.09;100.00
39341;BME280;25059;52.132;21.062;2023-02-20T07:35:04;100186.81;;;3.16;100.00
39341;BME280;25059;52.132;21.062;2023-02-20T07:37:49;100188.44;;;3.23;100.00
39341;BME280;25059;52.132;21.062;2023-02-20T07:40:33;100188.34;;;3.31;100.00
39341;BME280;25059;52.132;21.062;2023-02-20T07:43:18;100188.28;;;3.37;100.00
39341;BME280;25059;52.132;21.062;2023-02-20T07:46:02;100202.16;;;3.36;100.00
39341;BME280;25059;52.132;21.062;2023-02-20T07:48:47;100192.59;;;3.38;100.00
39341;BME280;25059;52.132;21.062;2023-02-20T07:51:32;100198.72;;;3.33;100.00
39341;BME280;25059;52.132;21.062;2023-02-20T07:54:16;100178.81;;;3.33;100.00
39341;BME280;25059;52.132;21.062;2023-02-20T07:57:01;100171.88;;;3.34;100.00
39341;BME280;25059;52.132;21.062;2023-02-20T07:59:45;100158.59;;;3.55;100.00
39341;BME280;25059;52.132;21.062;2023-02-20T08:02:30;100148.28;;;3.49;100.00
39341;BME280;25059;52.132;21.062;2023-02-20T08:05:18;100156.88;;;3.55;100.00
39341;BME280;25059;52.132;21.062;2023-02-20T08:08:03;100138.72;;;3.52;100.00
39341;BME280;25059;52.132;21.062;2023-02-20T08:10:47;100136.09;;;3.54;100.00
39341;BME280;25059;52.132;21.062;2023-02-20T08:13:32;100118.59;;;3.65;100.00
39341;BME280;25059;52.132;21.062;2023-02-20T08:16:17;100107.06;;;3.84;100.00
39341;BME280;25059;52.132;21.062;2023-02-20T08:19:01;100106.78;;;4.01;100.00
39341;BME280;25059;52.132;21.062;2023-02-20T08:21:46;100110.03;;;4.14;100.00
39341;BME280;25059;52.132;21.062;2023-02-20T08:24:31;100096.97;;;4.17;100.00
39341;BME280;25059;52.132;21.062;2023-02-20T08:27:15;100098.44;;;4.33;100.00
39341;BME280;25059;52.132;21.062;2023-02-20T08:30:00;100089.81;;;4.30;100.00
39341;BME280;25059;52.132;21.062;2023-02-20T08:32:45;100089.19;;;4.15;100.00
39341;BME280;25059;52.132;21.062;2023-02-20T08:35:30;100084.31;;;3.97;100.00
39341;BME280;25059;52.132;21.062;2023-02-20T08:41:10;100083.75;;;3.77;100.00
39341;BME280;25059;52.132;21.062;2023-02-20T08:43:55;100092.88;;;3.48;100.00
39341;BME280;25059;52.132;21.062;2023-02-20T08:46:48;100067.91;;;3.37;100.00
39341;BME280;25059;52.132;21.062;2023-02-20T08:49:33;100058.59;;;3.22;100.00
39341;BME280;25059;52.132;21.062;2023-02-20T08:52:18;100071.78;;;3.07;100.00
39341;BME280;25059;52.132;21.062;2023-02-20T08:55:03;100058.13;;;2.92;100.00
39341;BME280;25059;52.132;21.062;2023-02-20T08:57:49;100064.28;;;2.85;100.00
39341;BME280;25059;52.132;21.062;2023-02-20T09:04:09;100054.13;;;2.66;100.00
39341;BME280;25059;52.132;21.062;2023-02-20T09:06:54;100041.28;;;2.55;100.00
39341;BME280;25059;52.132;21.062;2023-02-20T09:09:41;100036.13;;;2.52;100.00
39341;BME280;25059;52.132;21.062;2023-02-20T09:12:29;100036.25;;;2.41;100.00
39341;BME280;25059;52.132;21.062;2023-02-20T09:15:14;100032.81;;;2.39;100.00
39341;BME280;25059;52.132;21.062;2023-02-20T09:18:01;100011.28;;;2.30;100.00
39341;BME280;25059;52.132;21.062;2023-02-20T09:20:46;100009.69;;;2.18;100.00
39341;BME280;25059;52.132;21.062;2023-02-20T09:23:31;100013.19;;;2.15;100.00
39341;BME280;25059;52.132;21.062;2023-02-20T09:26:16;99980.38;;;2.13;100.00
39341;BME280;25059;52.132;21.062;2023-02-20T09:29:01;99984.72;;;2.11;100.00
39341;BME280;25059;52.132;21.062;2023-02-20T09:31:47;99980.41;;;2.10;100.00
39341;BME280;25059;52.132;21.062;2023-02-20T09:34:33;99978.63;;;2.15;100.00
39341;BME280;25059;52.132;21.062;2023-02-20T09:37:18;99975.22;;;2.10;100.00
39341;BME280;25059;52.132;21.062;2023-02-20T09:40:03;99956.19;;;2.11;100.00
39341;BME280;25059;52.132;21.062;2023-02-20T09:45:43;99935.63;;;1.96;100.00
39341;BME280;25059;52.132;21.062;2023-02-20T09:51:33;99908.06;;;1.87;100.00
39341;BME280;25059;52.132;21.062;2023-02-20T09:54:25;99891.75;;;1.79;100.00
39341;BME280;25059;52.132;21.062;2023-02-20T09:57:15;99892.81;;;1.59;100.00
39341;BME280;25059;52.132;21.062;2023-02-20T10:00:09;99886.97;;;1.39;100.00
39341;BME280;25059;52.132;21.062;2023-02-20T10:03:10;99885.34;;;1.26;100.00
39341;BME280;25059;52.132;21.062;2023-02-20T10:05:57;99863.91;;;1.13;100.00
39341;BME280;25059;52.132;21.062;2023-02-20T10:08:42;99859.63;;;1.09;100.00
39341;BME280;25059;52.132;21.062;2023-02-20T10:14:46;99835.53;;;1.01;100.00
39341;BME280;25059;52.132;21.062;2023-02-20T10:26:12;99805.38;;;0.95;100.00
39341;BME280;25059;52.132;21.062;2023-02-20T10:29:25;99808.84;;;0.93;100.00
39341;BME280;25059;52.132;21.062;2023-02-20T10:32:15;99795.09;;;0.89;100.00
39341;BME280;25059;52.132;21.062;2023-02-20T10:35:08;99778.66;;;0.93;100.00
39341;BME280;25059;52.132;21.062;2023-02-20T10:37:56;99795.06;;;0.94;100.00
39341;BME280;25059;52.132;21.062;2023-02-20T10:40:44;99779.56;;;0.89;100.00
39341;BME280;25059;52.132;21.062;2023-02-20T10:49:37;99780.25;;;1.08;100.00
39341;BME280;25059;52.132;21.062;2023-02-20T10:52:27;99777.63;;;1.13;100.00
39341;BME280;25059;52.132;21.062;2023-02-20T10:55:18;99748.19;;;1.21;100.00
39341;BME280;25059;52.132;21.062;2023-02-20T10:58:35;99752.56;;;1.16;100.00
39341;BME280;25059;52.132;21.062;2023-02-20T11:01:22;99743.91;;;1.17;100.00
39341;BME280;25059;52.132;21.062;2023-02-20T11:04:12;99734.38;;;1.21;100.00
39341;BME280;25059;52.132;21.062;2023-02-20T11:07:00;99714.56;;;1.20;100.00
39341;BME280;25059;52.132;21.062;2023-02-20T11:09:46;99701.72;;;1.09;100.00
39341;BME280;25059;52.132;21.062;2023-02-20T11:12:36;99706.94;;;1.06;100.00
39341;BME280;25059;52.132;21.062;2023-02-20T11:15:25;99705.28;;;0.99;100.00
39341;BME280;25059;52.132;21.062;2023-02-20T11:18:23;99687.16;;;1.02;100.00
39341;BME280;25059;52.132;21.062;2023-02-20T11:21:33;99676.00;;;0.97;100.00
39341;BME280;25059;52.132;21.062;2023-02-20T11:24:28;99671.75;;;0.91;100.00
39341;BME280;25059;52.132;21.062;2023-02-20T11:27:22;99668.25;;;0.95;100.00
39341;BME280;25059;52.132;21.062;2023-02-20T11:30:28;99610.56;;;0.87;100.00
39341;BME280;25059;52.132;21.062;2023-02-20T11:33:17;99533.88;;;0.80;100.00
39341;BME280;25059;52.132;21.062;2023-02-20T11:36:22;99577.53;;;1.06;100.00
39341;BME280;25059;52.132;21.062;2023-02-20T11:39:19;99567.69;;;1.33;100.00
39341;BME280;25059;52.132;21.062;2023-02-20T11:42:17;99546.81;;;1.43;100.00
39341;BME280;25059;52.132;21.062;2023-02-20T11:45:21;99521.59;;;1.56;100.00
39341;BME280;25059;52.132;21.062;2023-02-20T11:48:18;99547.13;;;1.79;100.00
39341;BME280;25059;52.132;21.062;2023-02-20T11:51:12;99522.75;;;1.89;100.00
39341;BME280;25059;52.132;21.062;2023-02-20T11:57:15;99467.94;;;2.10;100.00
39341;BME280;25059;52.132;21.062;2023-02-20T12:00:23;99460.00;;;2.18;100.00
39341;BME280;25059;52.132;21.062;2023-02-20T12:03:23;99443.41;;;2.28;100.00
39341;BME280;25059;52.132;21.062;2023-02-20T12:09:21;99454.88;;;2.58;100.00
39341;BME280;25059;52.132;21.062;2023-02-20T12:12:13;99415.63;;;2.73;100.00
39341;BME280;25059;52.132;21.062;2023-02-20T12:14:58;99402.50;;;2.79;100.00
39341;BME280;25059;52.132;21.062;2023-02-20T12:20:40;99382.56;;;3.17;100.00
39341;BME280;25059;52.132;21.062;2023-02-20T12:26:59;99372.38;;;3.43;100.00
39341;BME280;25059;52.132;21.062;2023-02-20T12:30:05;99333.91;;;3.58;100.00
39341;BME280;25059;52.132;21.062;2023-02-20T12:36:32;99360.00;;;3.85;100.00
39341;BME280;25059;52.132;21.062;2023-02-20T12:39:50;99318.97;;;3.95;100.00
39341;BME280;25059;52.132;21.062;2023-02-20T12:45:39;99314.06;;;4.15;100.00
39341;BME280;25059;52.132;21.062;2023-02-20T12:48:45;99320.63;;;4.27;100.00
39341;BME280;25059;52.132;21.062;2023-02-20T12:57:16;99303.72;;;4.42;100.00
39341;BME280;25059;52.132;21.062;2023-02-20T13:00:27;99317.28;;;4.51;100.00
39341;BME280;25059;52.132;21.062;2023-02-20T13:03:18;99321.66;;;4.51;100.00
39341;BME280;25059;52.132;21.062;2023-02-20T13:06:04;99317.06;;;4.59;100.00
39341;BME280;25059;52.132;21.062;2023-02-20T13:12:09;99319.00;;;4.52;100.00
39341;BME280;25059;52.132;21.062;2023-02-20T13:21:02;99334.47;;;4.57;100.00
39341;BME280;25059;52.132;21.062;2023-02-20T13:23:48;99323.28;;;4.53;100.00
39341;BME280;25059;52.132;21.062;2023-02-20T13:29:25;99309.25;;;4.59;100.00
39341;BME280;25059;52.132;21.062;2023-02-20T13:38:28;99291.44;;;4.73;100.00
39341;BME280;25059;52.132;21.062;2023-02-20T13:41:12;99288.69;;;4.78;100.00
39341;BME280;25059;52.132;21.062;2023-02-20T13:50:26;99228.13;;;4.98;100.00
39341;BME280;25059;52.132;21.062;2023-02-20T13:53:12;99235.63;;;5.07;100.00
39341;BME280;25059;52.132;21.062;2023-02-20T13:55:57;99237.09;;;5.14;100.00
39341;BME280;25059;52.132;21.062;2023-02-20T13:58:41;99236.69;;;5.26;100.00
39341;BME280;25059;52.132;21.062;2023-02-20T14:01:27;99224.22;;;5.34;100.00
39341;BME280;25059;52.132;21.062;2023-02-20T14:04:19;99230.25;;;5.36;100.00
39341;BME280;25059;52.132;21.062;2023-02-20T14:07:04;99260.91;;;5.53;100.00
39341;BME280;25059;52.132;21.062;2023-02-20T14:13:14;99215.22;;;5.66;100.00
39341;BME280;25059;52.132;21.062;2023-02-20T14:16:01;99209.06;;;5.69;100.00
39341;BME280;25059;52.132;21.062;2023-02-20T14:18:46;99203.84;;;5.69;100.00
39341;BME280;25059;52.132;21.062;2023-02-20T14:21:32;99210.03;;;5.66;100.00
39341;BME280;25059;52.132;21.062;2023-02-20T14:27:27;99179.13;;;5.79;100.00
39341;BME280;25059;52.132;21.062;2023-02-20T14:30:15;99186.88;;;5.80;100.00
39341;BME280;25059;52.132;21.062;2023-02-20T14:33:00;99169.22;;;5.87;100.00
39341;BME280;25059;52.132;21.062;2023-02-20T14:39:01;99171.28;;;6.02;100.00
39341;BME280;25059;52.132;21.062;2023-02-20T14:44:35;99172.84;;;6.06;100.00
39341;BME280;25059;52.132;21.062;2023-02-20T14:47:20;99134.38;;;6.11;100.00
39341;BME280;25059;52.132;21.062;2023-02-20T14:50:23;99141.97;;;6.18;100.00
39341;BME280;25059;52.132;21.062;2023-02-20T14:53:15;99137.34;;;6.24;100.00
39341;BME280;25059;52.132;21.062;2023-02-20T14:56:10;99150.63;;;6.40;100.00
39341;BME280;25059;52.132;21.062;2023-02-20T14:58:55;99148.66;;;6.45;100.00
39341;BME280;25059;52.132;21.062;2023-02-20T15:01:40;99119.03;;;6.46;100.00
39341;BME280;25059;52.132;21.062;2023-02-20T15:04:26;99135.94;;;6.58;100.00
39341;BME280;25059;52.132;21.062;2023-02-20T15:07:11;99101.03;;;6.60;100.00
39341;BME280;25059;52.132;21.062;2023-02-20T15:09:58;99113.03;;;6.64;100.00
39341;BME280;25059;52.132;21.062;2023-02-20T15:12:55;99114.66;;;6.67;100.00
39341;BME280;25059;52.132;21.062;2023-02-20T15:15:46;99110.28;;;6.67;100.00
39341;BME280;25059;52.132;21.062;2023-02-20T15:18:35;99121.38;;;6.72;100.00
39341;BME280;25059;52.132;21.062;2023-02-20T15:21:38;99108.97;;;6.77;100.00
39341;BME280;25059;52.132;21.062;2023-02-20T15:27:14;99088.97;;;6.97;100.00
39341;BME280;25059;52.132;21.062;2023-02-20T15:30:19;99129.84;;;6.98;100.00
39341;BME280;25059;52.132;21.062;2023-02-20T15:33:07;99138.59;;;6.97;100.00
39341;BME280;25059;52.132;21.062;2023-02-20T15:35:53;99100.97;;;7.01;100.00
39341;BME280;25059;52.132;21.062;2023-02-20T15:38:39;99117.09;;;7.10;100.00
39341;BME280;25059;52.132;21.062;2023-02-20T15:41:24;99086.50;;;7.12;100.00
39341;BME280;25059;52.132;21.062;2023-02-20T15:44:08;99101.13;;;7.17;100.00
39341;BME280;25059;52.132;21.062;2023-02-20T15:46:53;99090.81;;;7.13;100.00
39341;BME280;25059;52.132;21.062;2023-02-20T15:49:38;99101.97;;;7.17;100.00
39341;BME280;25059;52.132;21.062;2023-02-20T15:52:24;99130.53;;;7.22;100.00
39341;BME280;25059;52.132;21.062;2023-02-20T15:55:15;99092.31;;;7.19;100.00
39341;BME280;25059;52.132;21.062;2023-02-20T15:58:00;99104.19;;;7.26;100.00
39341;BME280;25059;52.132;21.062;2023-02-20T16:00:46;99106.50;;;7.32;100.00
39341;BME280;25059;52.132;21.062;2023-02-20T16:03:32;99080.38;;;7.32;100.00
39341;BME280;25059;52.132;21.062;2023-02-20T16:06:18;99072.53;;;7.32;100.00
39341;BME280;25059;52.132;21.062;2023-02-20T16:09:03;99097.47;;;7.39;100.00
39341;BME280;25059;52.132;21.062;2023-02-20T16:11:48;99065.09;;;7.42;100.00
39341;BME280;25059;52.132;21.062;2023-02-20T16:14:32;99086.72;;;7.45;100.00
39341;BME280;25059;52.132;21.062;2023-02-20T16:17:22;99065.66;;;7.49;100.00
39341;BME280;25059;52.132;21.062;2023-02-20T16:20:14;99079.38;;;7.54;100.00
39341;BME280;25059;52.132;21.062;2023-02-20T16:22:59;99055.06;;;7.52;100.00
39341;BME280;25059;52.132;21.062;2023-02-20T16:25:45;99133.09;;;7.61;100.00
39341;BME280;25059;52.132;21.062;2023-02-20T16:28:30;99051.53;;;7.53;100.00
39341;BME280;25059;52.132;21.062;2023-02-20T16:31:14;99051.31;;;7.57;100.00
39341;BME280;25059;52.132;21.062;2023-02-20T16:33:59;99041.63;;;7.59;100.00
39341;BME280;25059;52.132;21.062;2023-02-20T16:36:43;99029.25;;;7.63;100.00
39341;BME280;25059;52.132;21.062;2023-02-20T16:39:28;99022.72;;;7.71;100.00
39341;BME280;25059;52.132;21.062;2023-02-20T16:42:31;99059.56;;;7.67;100.00
39341;BME280;25059;52.132;21.062;2023-02-20T16:45:19;99062.03;;;7.70;100.00